Jefferson Cueva

Chefscout - Melgar
17 Jul 2027
Samstag
Verarbeitung

Persönlichkeit

Anpassungsfähigkeit (4) Ehrgeiz (7) Kontroverse (2) Loyalität (10) Druck (7) Professionalität (4) Fairness (12) Temperament (19)

Profil

Trainerstil Demokratisch
Lizenz Kontinentale B
Entschlossenheit 10
Menschenführung 11
Motivation 6
Disziplin 5
Arbeitszufriedenheit
85%
Ermüdung
0%
Rolle Chefscout
Gehalt 68.2K p/W
Vertrag 14.03.2030

Leistung

Verhalten Gut
Trainingseffektivität
25%
Spielerentwicklung
20%
Verletzungsprävention
25%
Taktische Umsetzung
25%

Letzte Ereignisse

Nahm an einer Scouting-Besprechung teil jetzt
Empfahl ein Transferziel jetzt
Empfahl ein Transferziel jetzt
Empfahl ein Transferziel 7T her
Empfahl ein Transferziel 7T her
Empfahl ein Transferziel 7T her
Nahm an einer Scouting-Besprechung teil 7T her
Nahm an einer Scouting-Besprechung teil 7T her

Aktuell beobachtet

159
Spieler Verein Status Fähigkeit Vertrauen Beobachtet Zuletzt beobachtet Letzte Stimme
Héctor Campos Deportivo Municipal Aktiv 99 / 99 72% 1 05.07.2027 Befürworten
Gaspar Gentile Alianza Lima Aktiv 108 / 112 72% 1 21.06.2027 Befürworten
Leandro Martins Benfica Aktiv 88 / 105 40% 2 01.06.2027 -
Pietro Reggiori Pro Patria Aktiv 91 / 99 40% 3 01.06.2027 -
Lautaro Dufur Rentistas Verhandlung 97 / 112 40% 1 01.06.2027 -
Jonathan Bland Barnsley Aktiv 103 / 99 40% 2 31.05.2027 -
Sergio Castillo Cortulua Aktiv 108 / 115 40% 2 31.05.2027 Mehr Infos nötig
Diego Cheuquepal Racing Aktiv 101 / 99 40% 1 31.05.2027 -
Facundo Infante Talleres Aktiv 83 / 93 40% 1 30.05.2027 -
Thiago Silvero Sevilla Aktiv 124 / 135 40% 1 29.05.2027 -
Inti Borghetto Patronato Aktiv 88 / 98 40% 1 29.05.2027 -
Sebastián Flores Rayo Vallecano Aktiv 102 / 112 40% 1 29.05.2027 -
Ezra Mayers West Ham United Aktiv 117 / 135 40% 2 28.05.2027 -
Maeson King Blackpool Aktiv 118 / 116 40% 1 28.05.2027 -
Facundo Balatti Penarol Aktiv 106 / 117 40% 1 26.05.2027 -
Eduardo Felicíssimo Sporting CP Aktiv 114 / 126 40% 1 26.05.2027 Mehr Infos nötig
Jonathan De Irastorza Levante Aktiv 114 / 114 40% 2 24.05.2027 -
Lucas Jetten Cambuur Aktiv 115 / 121 40% 2 24.05.2027 -
T-Jay Parfitt Cardiff City Aktiv 96 / 106 40% 1 24.05.2027 -
Daniel Kelly Derby County Aktiv 105 / 111 40% 2 23.05.2027 -
Victor Ehibe Gazelle Garoua Aktiv 96 / 87 40% 1 22.05.2027 -
Tiago Freitas Benfica Aktiv 100 / 123 40% 1 20.05.2027 -
Camilo Rey Domenech Racing Club Aktiv 118 / 123 40% 1 18.05.2027 Mehr Infos nötig
Tommaso Cecotti Carpi Aktiv 100 / 89 40% 1 18.05.2027 -
Esteban de Lima Tacuarembo Aktiv 91 / 96 40% 1 18.05.2027 -
Felipe Obradovich Gimnasia La Plata Aktiv 113 / 118 40% 1 16.05.2027 Mehr Infos nötig
Surprise Manthosi Polokwane City Aktiv 84 / 94 40% 1 16.05.2027 -
Mohammed Wakaso Hasaacas Aktiv 100 / 104 40% 1 15.05.2027 -
Edwin Asamoah Berekum Chelsea Aktiv 85 / 88 40% 1 13.05.2027 -
Samuel Lucero Defensa y Justicia Aktiv 110 / 121 40% 2 11.05.2027 Mehr Infos nötig
Ronan Kpakio Brentford Aktiv 110 / 116 40% 1 09.05.2027 Mehr Infos nötig
Joel McGregor Swindon Town Aktiv 86 / 92 40% 1 07.05.2027 -
Juan Giménez Rosario Central Aktiv 110 / 125 40% 1 04.05.2027 Mehr Infos nötig
Agustín Obregón River Plate Aktiv 107 / 112 40% 1 03.05.2027 Mehr Infos nötig
Andrey Ivlev Nizhniy Novgorod Aktiv 110 / 123 40% 1 03.05.2027 Mehr Infos nötig
Oleksandr Saputin Zorya Aktiv 110 / 113 40% 3 28.12.2026 -
Angel Zamudio CFR Cluj Aktiv 114 / 106 40% 1 28.12.2026 -
Carl Rushworth Coventry City Aktiv 136 / 130 40% 1 28.12.2026 -
Ronal Huaccha Sport Huancayo Aktiv 106 / 106 69% 1 21.12.2026 Befürworten
Filip Marschall Stevenage Aktiv 105 / 104 40% 2 28.11.2026 -
Luke Southwood Bristol Rovers Aktiv 102 / 101 40% 1 28.11.2026 -
Kermit Erasmus Platinum Stars Aktiv 102 / 102 40% 2 26.11.2026 -
Jhon Aponza Boca Juniors Aktiv 112 / 113 40% 1 26.11.2026 -
Juan Ibarrola Argentinos Juniors Aktiv 90 / 87 40% 1 26.11.2026 -
Drake Callender Minnesota United FC Aktiv 115 / 119 40% 1 26.11.2026 Mehr Infos nötig
Evidence Billiat Ajax Cape Town Aktiv 101 / 115 40% 1 25.11.2026 -
Frankarlos Benítez Caracas Aktiv 93 / 102 40% 2 24.11.2026 -
Gian Piaggio Colón Aktiv 87 / 97 40% 7 23.11.2026 -
Facundo Ledesma Mitre Aktiv 88 / 89 40% 2 23.11.2026 -
Heorhii Yermakov Metalist Aktiv 120 / 115 40% 2 23.11.2026 -
Emanuel Sittaro Instituto Aktiv 94 / 94 40% 3 21.11.2026 -
Alexei Dominguez Pachuca Aktiv 116 / 114 40% 3 21.11.2026 -
Franco Carretero Deportivo Lara Aktiv 104 / 104 40% 3 17.11.2026 -
Fabricio Díaz San Lorenzo Aktiv 91 / 94 40% 2 17.11.2026 -
Javier Vallejos Central Córdoba SdE Aktiv 101 / 100 40% 5 17.11.2026 -
Lorenzo Orzán Colón Aktiv 87 / 96 40% 3 16.11.2026 -
Javier Bustillos Los Andes Aktiv 102 / 99 40% 2 16.11.2026 -
Mateusz Kochalski Qarabag Aktiv 129 / 129 40% 1 16.11.2026 Mehr Infos nötig
Bautista La Licata Belgrano Aktiv 91 / 99 40% 1 16.11.2026 -
Joaquín Canadell Quilmes Aktiv 90 / 92 40% 2 12.11.2026 -
Osagie Onisodumeya Al Gaish Aktiv 87 / 107 40% 1 12.11.2026 -
Martin Trnovský Podbrezova Aktiv 117 / 101 40% 1 11.11.2026 Mehr Infos nötig
Luka Andrade Montevideo City Torque Aktiv 92 / 111 40% 2 10.11.2026 -
Lucas Girotti Trento Aktiv 72 / 82 40% 1 10.11.2026 -
Francisco Gualtieri Estudiantes Aktiv 95 / 92 40% 2 09.11.2026 -
Evgeny Staver Rubin Aktiv 102 / 111 40% 1 09.11.2026 -
Agustín Lastra Estudiantes Aktiv 108 / 104 40% 2 07.11.2026 -
Nahuel González Alvarado Aktiv 92 / 95 40% 4 05.11.2026 -
Luther Tau SuperSport United Aktiv 116 / 110 40% 2 04.11.2026 -
Jeremías Reyna Vélez Aktiv 93 / 101 40% 2 04.11.2026 -
Oscar Hedvall Valerenga Aktiv 124 / 117 40% 1 04.11.2026 Mehr Infos nötig
Nehemías Almaraz Oviedo Aktiv 77 / 103 40% 1 04.11.2026 -
Lautaro Díaz San Martín Aktiv 81 / 92 40% 1 04.11.2026 -
Alan Salas San Lorenzo Aktiv 89 / 99 40% 2 03.11.2026 -
Martín Astudillo Racing Aktiv 78 / 86 40% 3 03.11.2026 -
Bruno Fernández Independiente Aktiv 86 / 91 40% 1 03.11.2026 -
Alexis Devesa Aldosivi Aktiv 88 / 100 40% 1 02.11.2026 -
Francisco Vergara Gimnasia La Plata Aktiv 97 / 97 40% 2 30.10.2026 -
Cristopher Varela Deportivo La Guaira Aktiv 118 / 109 40% 2 29.10.2026 -
Hugo Gallardo Veracruz Aktiv 104 / 97 40% 1 28.10.2026 -
Albert Posiadała Molde Aktiv 130 / 115 40% 1 28.10.2026 -
Moisés Gallo Caracas Aktiv 103 / 97 40% 3 27.10.2026 -
Diego Enríquez Sporting Cristal Aktiv 125 / 125 40% 1 27.10.2026 -
Patricio Albornoz Atlético Tucumán Aktiv 95 / 93 40% 2 26.10.2026 -
Pontus Dahlberg Lillestrom Aktiv 115 / 99 40% 1 26.10.2026 -
Matías Caballero Patronato Aktiv 95 / 92 40% 1 25.10.2026 -
Franco Sassone Defensores Aktiv 94 / 93 40% 1 25.10.2026 -
Agustín Quiroz Watford Aktiv 90 / 85 40% 1 23.10.2026 -
Franco Capponi Aldosivi Aktiv 94 / 102 40% 3 21.10.2026 -
Sipho Chaine Orlando Pirates Aktiv 129 / 127 40% 1 21.10.2026 -
Renzo Lo Bianco Sarmiento Aktiv 76 / 85 40% 2 20.10.2026 -
Dante Azaldegui Deportivo Riestra Aktiv 90 / 91 40% 1 20.10.2026 -
Diego Romero Universitario Aktiv 115 / 125 40% 1 16.10.2026 -
Miguel Silva Carabobo Aktiv 109 / 104 40% 1 16.10.2026 -
Tomás Romero Unión de Santa Fe Aktiv 99 / 98 40% 1 16.10.2026 -
Sebastián Corradi Talleres Aktiv 85 / 99 40% 1 16.10.2026 -
José Febres Trujillanos Aktiv 87 / 87 40% 1 13.10.2026 -
Lautaro Porres Spezia Aktiv 94 / 97 40% 1 13.10.2026 -
Rafael Sánchez Zulia Aktiv 83 / 85 40% 3 07.10.2026 -
Viktor Johansson Stoke City Aktiv 124 / 130 40% 1 07.10.2026 -
Emilio Figueredo Deportivo Riestra Aktiv 81 / 91 40% 1 06.10.2026 -
Franco Domínguez Ávila Estudiantes Aktiv 97 / 104 40% 1 05.10.2026 -
David López Pinto All Boys Aktiv 79 / 87 40% 2 03.10.2026 -
Lucas Bruera Carabobo Aktiv 124 / 123 40% 2 03.10.2026 -
Ani Ozoemena Rivers United Aktiv 90 / 109 40% 1 03.10.2026 -
Víctor Guzmán Sporting CP Aktiv 97 / 97 40% 1 03.10.2026 -
Yoel Marchi Vélez Aktiv 87 / 95 40% 1 02.10.2026 -
Nahuel Reyes Mitre Aktiv 86 / 97 40% 1 02.10.2026 -
Leonel Flores Boca Juniors Aktiv 100 / 109 40% 2 29.09.2026 -
Matías Fuentes Boca Juniors Aktiv 79 / 88 40% 1 29.09.2026 -
Mateo Raschia Unión de Santa Fe Aktiv 87 / 98 40% 3 26.09.2026 -
Tomás Lingua Burnley Aktiv 100 / 97 40% 1 21.09.2026 -
Aaron Centurión Vélez Aktiv 98 / 104 40% 3 19.09.2026 -
Renato Solís Sporting Cristal Aktiv 123 / 117 40% 2 19.09.2026 -
Fabricio Mendieta Belgrano Aktiv 83 / 98 40% 1 19.09.2026 -
Álvaro Fernández Deportivo La Coruña Aktiv 146 / 136 40% 1 12.09.2026 -
Mauricio Di Gubio Godoy Cruz Aktiv 81 / 88 40% 2 10.09.2026 -
Tobías Ganduglia Independiente Rivadavia Aktiv 86 / 98 40% 1 10.09.2026 -
Francisco Robinson San Martín Aktiv 78 / 86 40% 1 09.09.2026 -
Branco Ripoll Aldosivi Aktiv 85 / 95 40% 1 09.09.2026 -
Mauro Isopi Platense Aktiv 85 / 84 40% 2 07.09.2026 -
Luiz Artigas Aktiv 95 / 85 40% 1 07.09.2026 -
Gerónimo Kugler Gimnasia La Plata Aktiv 76 / 83 40% 1 05.09.2026 -
Laureano Paez Colón Aktiv 89 / 102 40% 2 03.09.2026 -
Giuliano Pierini San Lorenzo Aktiv 78 / 88 40% 2 03.09.2026 -
Joaquín Acosta Boca Juniors Aktiv 86 / 87 40% 1 03.09.2026 -
Daniel Murillo Atletico Venezuela Aktiv 76 / 84 40% 1 02.09.2026 -
Alejandro Garay Independiente Aktiv 79 / 90 40% 1 02.09.2026 -
Víctor Machado Independiente Rivadavia Aktiv 92 / 97 40% 1 01.09.2026 -
Nicolás Valdemarín Estudiantes Aktiv 72 / 80 40% 1 01.09.2026 -
Felipe Tempone Independiente Aktiv 88 / 84 40% 1 01.09.2026 -
Joaquín Rivero Instituto Aktiv 83 / 99 40% 1 31.08.2026 -
Tobías Quinteros Almirante Brown Aktiv 75 / 87 40% 1 29.08.2026 -
Lucas Villagra Barracas Central Aktiv 83 / 89 40% 1 26.08.2026 -
Lucciano Reinoso Caracas Aktiv 83 / 94 40% 1 26.08.2026 -
Ian De Filippi San Lorenzo Aktiv 84 / 94 40% 1 21.08.2026 -
Jesús Hakanson Barracas Central Aktiv 73 / 85 40% 2 20.08.2026 -
Joaquín Toranzo Sarmiento Aktiv 82 / 92 40% 1 19.08.2026 -
Jonathan Ledesma Platense Aktiv 88 / 101 40% 1 19.08.2026 -
Alejo Ross Racing Aktiv 79 / 83 40% 1 15.08.2026 -
Thiago Sosa Huracán Aktiv 73 / 86 40% 1 14.08.2026 -
Thiago Perugini San Lorenzo Aktiv 96 / 98 40% 1 14.08.2026 -
Damián London Argentinos Juniors Aktiv 77 / 91 40% 1 13.08.2026 -
Matías Cantero All Boys Aktiv 83 / 93 40% 1 11.08.2026 -
Mateo Zárate Barracas Central Aktiv 80 / 91 40% 1 11.08.2026 -
Enzo Figueredo Boca Juniors Aktiv 86 / 88 40% 1 10.08.2026 -
Valentino Buccolo Platense Aktiv 74 / 85 40% 1 08.08.2026 -
Alan Rivero Almirante Brown Aktiv 76 / 86 40% 1 08.08.2026 -
Gerónimo Tomasetti Temperley Aktiv 101 / 104 40% 1 04.08.2026 -
Pedro Silva Torrejón Gimnasia La Plata Aktiv 116 / 124 40% 1 04.08.2026 -
Julián Ceballos Gimnasia y Esgrima Aktiv 109 / 124 40% 1 04.08.2026 -
Lautaro Lovazzano Portuguesa Aktiv 100 / 101 40% 1 03.08.2026 -
Luciano Cingolani Gimnasia y Esgrima Aktiv 113 / 110 40% 1 03.08.2026 -
Christian Larotonda Caracas Aktiv 119 / 109 40% 1 03.08.2026 -
Franco Bergés Güemes Aktiv 107 / 107 40% 1 02.08.2026 -
Martín Sarrafiore O'Higgins Aktiv 118 / 111 40% 1 02.08.2026 -
Ignacio Vallejos Colegiales Aktiv 116 / 107 40% 1 02.08.2026 -
Jherson Mosquera Newell's Old Boys Aktiv 125 / 124 40% 1 01.08.2026 -
Nicolás Henry Tristán Suárez Aktiv 116 / 117 40% 1 01.08.2026 -